Terminal Aerodrome Forecast
Issued by NWS Twin Cities, MN

Home | Current Version | Previous Version | Graphics & Text | Print | Product List | Glossary Off
Versions: 1 2 3 4 5 6 7 8 9 10 11 12 13 14 15 16 17 18 19 20 21 22 23 24 25 26 27 28 29 30 31

000
FTUS43 KMPX 011730
TAFMSP
TAF
KMSP 011730Z 0118/0224 03007KT P6SM SKC
     FM012000 05008KT P6SM FEW050 SCT080
     FM020100 VRB03KT P6SM SCT080
     FM021000 VRB03KT 6SM BR FEW002
     FM021400 03003KT P6SM FEW007 SCT250
     FM021700 09004KT P6SM SCT250=

USA.gov is the U.S. government's official web portal to all federal, state and local government web resources and services.